sensor_id;sensor_type;location;lat;lon;timestamp;pressure;altitude;pressure_sealevel;temperature;humidity
9335;BME280;4706;41.844;26.082;2023-02-20T00:02:13;100884.09;;;13.42;65.42
9335;BME280;4706;41.844;26.082;2023-02-20T00:04:39;100882.97;;;13.43;65.26
9335;BME280;4706;41.844;26.082;2023-02-20T00:07:05;100897.28;;;13.45;64.79
9335;BME280;4706;41.844;26.082;2023-02-20T00:09:30;100883.16;;;13.47;64.74
9335;BME280;4706;41.844;26.082;2023-02-20T00:11:55;100895.91;;;13.56;64.51
9335;BME280;4706;41.844;26.082;2023-02-20T00:14:21;100890.19;;;13.53;64.39
9335;BME280;4706;41.844;26.082;2023-02-20T00:16:47;100903.25;;;13.61;64.56
9335;BME280;4706;41.844;26.082;2023-02-20T00:19:13;100905.53;;;13.59;64.26
9335;BME280;4706;41.844;26.082;2023-02-20T00:21:46;100902.06;;;13.53;64.47
9335;BME280;4706;41.844;26.082;2023-02-20T00:24:13;100895.72;;;13.53;64.94
9335;BME280;4706;41.844;26.082;2023-02-20T00:26:38;100889.16;;;13.63;64.41
9335;BME280;4706;41.844;26.082;2023-02-20T00:29:04;100890.28;;;13.62;64.32
9335;BME280;4706;41.844;26.082;2023-02-20T00:31:29;100896.66;;;13.48;65.04
9335;BME280;4706;41.844;26.082;2023-02-20T00:33:55;100888.19;;;13.45;64.81
9335;BME280;4706;41.844;26.082;2023-02-20T00:36:20;100879.75;;;13.50;64.92
9335;BME280;4706;41.844;26.082;2023-02-20T00:38:46;100881.91;;;13.53;65.13
9335;BME280;4706;41.844;26.082;2023-02-20T00:41:12;100871.03;;;13.56;64.81
9335;BME280;4706;41.844;26.082;2023-02-20T00:43:39;100873.41;;;13.49;64.79
9335;BME280;4706;41.844;26.082;2023-02-20T00:46:05;100870.56;;;13.54;64.91
9335;BME280;4706;41.844;26.082;2023-02-20T00:48:30;100870.03;;;13.52;64.74
9335;BME280;4706;41.844;26.082;2023-02-20T00:50:56;100877.72;;;13.55;64.47
9335;BME280;4706;41.844;26.082;2023-02-20T00:53:22;100878.13;;;13.49;64.68
9335;BME280;4706;41.844;26.082;2023-02-20T00:55:47;100869.56;;;13.50;64.86
9335;BME280;4706;41.844;26.082;2023-02-20T00:58:13;100884.94;;;13.43;64.90
9335;BME280;4706;41.844;26.082;2023-02-20T01:00:38;100887.78;;;13.38;65.04
9335;BME280;4706;41.844;26.082;2023-02-20T01:03:04;100884.94;;;13.43;64.71
9335;BME280;4706;41.844;26.082;2023-02-20T01:05:29;100894.91;;;13.52;64.75
9335;BME280;4706;41.844;26.082;2023-02-20T01:07:55;100900.28;;;13.35;64.96
9335;BME280;4706;41.844;26.082;2023-02-20T01:10:20;100892.13;;;13.30;65.14
9335;BME280;4706;41.844;26.082;2023-02-20T01:12:46;100878.00;;;13.18;65.07
9335;BME280;4706;41.844;26.082;2023-02-20T01:15:13;100875.06;;;13.00;65.86
9335;BME280;4706;41.844;26.082;2023-02-20T01:17:39;100883.06;;;12.88;65.85
9335;BME280;4706;41.844;26.082;2023-02-20T01:20:05;100877.66;;;12.83;66.08
9335;BME280;4706;41.844;26.082;2023-02-20T01:22:31;100881.97;;;12.75;66.34
9335;BME280;4706;41.844;26.082;2023-02-20T01:24:57;100884.59;;;12.80;65.73
9335;BME280;4706;41.844;26.082;2023-02-20T01:27:22;100876.72;;;12.74;66.11
9335;BME280;4706;41.844;26.082;2023-02-20T01:29:47;100875.22;;;12.54;66.81
9335;BME280;4706;41.844;26.082;2023-02-20T01:32:13;100874.38;;;12.26;67.96
9335;BME280;4706;41.844;26.082;2023-02-20T01:34:39;100873.66;;;12.20;68.05
9335;BME280;4706;41.844;26.082;2023-02-20T01:37:04;100877.84;;;12.18;68.21
9335;BME280;4706;41.844;26.082;2023-02-20T01:39:30;100884.50;;;12.30;67.67
9335;BME280;4706;41.844;26.082;2023-02-20T01:41:59;100887.97;;;12.36;67.63
9335;BME280;4706;41.844;26.082;2023-02-20T01:44:28;100903.41;;;12.51;67.52
9335;BME280;4706;41.844;26.082;2023-02-20T01:46:56;100899.75;;;12.42;67.72
9335;BME280;4706;41.844;26.082;2023-02-20T01:49:27;100897.19;;;12.45;67.01
9335;BME280;4706;41.844;26.082;2023-02-20T01:52:06;100897.06;;;12.36;67.56
9335;BME280;4706;41.844;26.082;2023-02-20T01:54:34;100888.56;;;12.19;67.76
9335;BME280;4706;41.844;26.082;2023-02-20T01:57:02;100904.69;;;12.12;68.17
9335;BME280;4706;41.844;26.082;2023-02-20T01:59:31;100894.66;;;12.02;68.46
9335;BME280;4706;41.844;26.082;2023-02-20T02:01:57;100915.63;;;12.17;68.06
9335;BME280;4706;41.844;26.082;2023-02-20T02:04:23;100906.66;;;12.25;67.73
9335;BME280;4706;41.844;26.082;2023-02-20T02:06:51;100914.41;;;12.23;67.76
9335;BME280;4706;41.844;26.082;2023-02-20T02:09:36;100909.09;;;12.13;68.13
9335;BME280;4706;41.844;26.082;2023-02-20T02:12:03;100907.56;;;12.21;67.53
9335;BME280;4706;41.844;26.082;2023-02-20T02:14:29;100906.22;;;12.18;68.14
9335;BME280;4706;41.844;26.082;2023-02-20T02:22:55;100911.13;;;12.21;68.41
9335;BME280;4706;41.844;26.082;2023-02-20T02:25:53;100908.28;;;12.12;68.35
9335;BME280;4706;41.844;26.082;2023-02-20T02:39:29;100923.81;;;12.36;67.65
9335;BME280;4706;41.844;26.082;2023-02-20T02:47:39;100923.81;;;12.36;68.18
9335;BME280;4706;41.844;26.082;2023-02-20T02:50:20;100934.47;;;12.43;67.72
9335;BME280;4706;41.844;26.082;2023-02-20T02:52:49;100951.72;;;12.48;67.53
9335;BME280;4706;41.844;26.082;2023-02-20T02:55:25;100944.97;;;12.40;67.72
9335;BME280;4706;41.844;26.082;2023-02-20T02:57:51;100950.59;;;12.35;67.63
9335;BME280;4706;41.844;26.082;2023-02-20T03:00:30;100953.16;;;12.32;67.90
9335;BME280;4706;41.844;26.082;2023-02-20T03:03:37;100950.28;;;12.37;67.70
9335;BME280;4706;41.844;26.082;2023-02-20T03:06:20;100940.56;;;12.26;67.68
9335;BME280;4706;41.844;26.082;2023-02-20T03:08:53;100946.56;;;12.14;68.52
9335;BME280;4706;41.844;26.082;2023-02-20T03:11:26;100952.25;;;12.04;69.26
9335;BME280;4706;41.844;26.082;2023-02-20T03:19:39;100952.63;;;11.97;69.06
9335;BME280;4706;41.844;26.082;2023-02-20T03:22:11;100950.34;;;11.85;69.56
9335;BME280;4706;41.844;26.082;2023-02-20T03:24:40;100951.66;;;11.69;70.18
9335;BME280;4706;41.844;26.082;2023-02-20T03:27:36;100955.31;;;11.64;70.30
9335;BME280;4706;41.844;26.082;2023-02-20T03:30:20;100968.28;;;11.64;70.32
9335;BME280;4706;41.844;26.082;2023-02-20T03:32:52;100954.94;;;11.71;70.09
9335;BME280;4706;41.844;26.082;2023-02-20T03:35:42;100967.41;;;11.87;70.07
9335;BME280;4706;41.844;26.082;2023-02-20T03:38:28;100970.91;;;11.93;69.38
9335;BME280;4706;41.844;26.082;2023-02-20T03:41:15;100969.41;;;12.01;68.93
9335;BME280;4706;41.844;26.082;2023-02-20T03:44:01;100960.22;;;12.05;68.96
9335;BME280;4706;41.844;26.082;2023-02-20T03:46:30;100974.53;;;12.07;68.99
9335;BME280;4706;41.844;26.082;2023-02-20T03:49:02;100983.66;;;12.22;68.21
9335;BME280;4706;41.844;26.082;2023-02-20T03:51:28;100990.81;;;12.23;67.43
9335;BME280;4706;41.844;26.082;2023-02-20T03:53:54;101001.16;;;12.31;66.91
9335;BME280;4706;41.844;26.082;2023-02-20T03:56:27;100992.19;;;12.39;66.30
9335;BME280;4706;41.844;26.082;2023-02-20T03:59:00;100993.38;;;12.33;65.98
9335;BME280;4706;41.844;26.082;2023-02-20T04:01:27;100998.03;;;12.37;65.57
9335;BME280;4706;41.844;26.082;2023-02-20T04:03:55;100990.34;;;12.34;65.58
9335;BME280;4706;41.844;26.082;2023-02-20T04:06:26;100985.75;;;12.30;65.53
9335;BME280;4706;41.844;26.082;2023-02-20T04:09:05;100982.44;;;12.28;65.12
9335;BME280;4706;41.844;26.082;2023-02-20T04:11:46;100993.16;;;12.29;64.66
9335;BME280;4706;41.844;26.082;2023-02-20T04:14:13;100985.13;;;12.33;64.55
9335;BME280;4706;41.844;26.082;2023-02-20T04:16:48;100990.56;;;12.38;63.29
9335;BME280;4706;41.844;26.082;2023-02-20T04:19:15;100988.69;;;12.33;63.44
9335;BME280;4706;41.844;26.082;2023-02-20T04:21:45;100987.75;;;12.24;63.77
9335;BME280;4706;41.844;26.082;2023-02-20T04:24:18;100987.75;;;12.24;63.88
9335;BME280;4706;41.844;26.082;2023-02-20T04:26:45;100987.44;;;12.26;63.66
9335;BME280;4706;41.844;26.082;2023-02-20T04:29:11;100967.53;;;12.15;63.70
9335;BME280;4706;41.844;26.082;2023-02-20T04:31:37;100982.56;;;12.23;63.73
9335;BME280;4706;41.844;26.082;2023-02-20T04:34:02;100986.50;;;12.17;63.32
9335;BME280;4706;41.844;26.082;2023-02-20T04:36:28;100997.97;;;12.24;63.71
9335;BME280;4706;41.844;26.082;2023-02-20T04:38:53;101002.34;;;12.25;63.07
9335;BME280;4706;41.844;26.082;2023-02-20T04:41:19;101015.06;;;12.39;62.31
9335;BME280;4706;41.844;26.082;2023-02-20T04:43:44;101019.47;;;12.40;62.77
9335;BME280;4706;41.844;26.082;2023-02-20T04:46:10;101015.16;;;12.34;63.01
9335;BME280;4706;41.844;26.082;2023-02-20T04:48:35;101012.69;;;12.33;62.60
9335;BME280;4706;41.844;26.082;2023-02-20T04:51:01;101006.16;;;12.29;63.01
9335;BME280;4706;41.844;26.082;2023-02-20T04:53:26;101010.56;;;12.30;62.89
9335;BME280;4706;41.844;26.082;2023-02-20T04:55:52;101015.47;;;12.33;62.78
9335;BME280;4706;41.844;26.082;2023-02-20T04:58:17;101007.72;;;12.35;62.40
9335;BME280;4706;41.844;26.082;2023-02-20T05:00:43;101005.28;;;12.47;62.07
9335;BME280;4706;41.844;26.082;2023-02-20T05:03:08;101006.03;;;12.53;61.60
9335;BME280;4706;41.844;26.082;2023-02-20T05:05:34;101008.78;;;12.53;61.24
9335;BME280;4706;41.844;26.082;2023-02-20T05:08:01;101013.59;;;12.61;61.16
9335;BME280;4706;41.844;26.082;2023-02-20T05:10:29;101021.06;;;12.60;60.92
9335;BME280;4706;41.844;26.082;2023-02-20T05:12:55;101020.66;;;12.67;60.66
9335;BME280;4706;41.844;26.082;2023-02-20T05:15:22;101017.59;;;12.69;60.27
9335;BME280;4706;41.844;26.082;2023-02-20T05:17:48;101030.28;;;12.70;60.71
9335;BME280;4706;41.844;26.082;2023-02-20T05:20:14;101033.03;;;12.70;60.58
9335;BME280;4706;41.844;26.082;2023-02-20T05:22:39;101039.09;;;12.72;60.31
9335;BME280;4706;41.844;26.082;2023-02-20T05:25:05;101038.25;;;12.71;60.34
9335;BME280;4706;41.844;26.082;2023-02-20T05:27:31;101052.47;;;12.78;60.16
9335;BME280;4706;41.844;26.082;2023-02-20T05:29:59;101061.38;;;12.75;60.21
9335;BME280;4706;41.844;26.082;2023-02-20T05:32:27;101059.31;;;12.81;60.09
9335;BME280;4706;41.844;26.082;2023-02-20T05:34:55;101063.72;;;12.82;59.30
9335;BME280;4706;41.844;26.082;2023-02-20T05:37:22;101064.47;;;12.87;59.67
9335;BME280;4706;41.844;26.082;2023-02-20T05:39:49;101070.69;;;12.93;58.76
9335;BME280;4706;41.844;26.082;2023-02-20T05:42:15;101069.81;;;12.98;58.30
9335;BME280;4706;41.844;26.082;2023-02-20T05:44:41;101084.09;;;13.00;58.38
9335;BME280;4706;41.844;26.082;2023-02-20T05:47:07;101084.50;;;12.93;59.06
9335;BME280;4706;41.844;26.082;2023-02-20T05:49:34;101074.25;;;12.80;59.11
9335;BME280;4706;41.844;26.082;2023-02-20T05:52:00;101109.34;;;12.93;59.51
9335;BME280;4706;41.844;26.082;2023-02-20T05:54:26;101101.38;;;12.92;59.15
9335;BME280;4706;41.844;26.082;2023-02-20T05:56:52;101106.91;;;12.92;58.81
9335;BME280;4706;41.844;26.082;2023-02-20T05:59:20;101111.06;;;12.89;59.18
9335;BME280;4706;41.844;26.082;2023-02-20T06:01:46;101099.38;;;12.78;59.11
9335;BME280;4706;41.844;26.082;2023-02-20T06:04:15;101109.84;;;12.81;59.33
9335;BME280;4706;41.844;26.082;2023-02-20T06:06:41;101112.31;;;12.83;59.17
9335;BME280;4706;41.844;26.082;2023-02-20T06:09:09;101120.59;;;12.83;59.01
9335;BME280;4706;41.844;26.082;2023-02-20T06:11:40;101114.84;;;12.79;59.39
9335;BME280;4706;41.844;26.082;2023-02-20T06:14:06;101134.81;;;12.90;59.26
9335;BME280;4706;41.844;26.082;2023-02-20T06:16:33;101143.00;;;12.95;59.15
9335;BME280;4706;41.844;26.082;2023-02-20T06:18:59;101135.94;;;12.89;59.23
9335;BME280;4706;41.844;26.082;2023-02-20T06:21:25;101145.88;;;13.04;58.89
9335;BME280;4706;41.844;26.082;2023-02-20T06:23:52;101143.66;;;13.06;59.06
9335;BME280;4706;41.844;26.082;2023-02-20T06:26:20;101144.69;;;13.10;58.82
9335;BME280;4706;41.844;26.082;2023-02-20T06:28:45;101150.47;;;13.27;58.47
9335;BME280;4706;41.844;26.082;2023-02-20T06:31:20;101152.22;;;13.37;58.17
9335;BME280;4706;41.844;26.082;2023-02-20T06:33:46;101142.72;;;13.43;58.36
9335;BME280;4706;41.844;26.082;2023-02-20T06:36:19;101155.63;;;13.62;58.54
9335;BME280;4706;41.844;26.082;2023-02-20T06:38:45;101155.53;;;13.80;57.72
9335;BME280;4706;41.844;26.082;2023-02-20T06:41:10;101146.25;;;14.13;56.15
9335;BME280;4706;41.844;26.082;2023-02-20T06:43:36;101152.25;;;14.28;56.17
9335;BME280;4706;41.844;26.082;2023-02-20T06:46:01;101146.88;;;14.46;55.19
9335;BME280;4706;41.844;26.082;2023-02-20T06:48:27;101150.25;;;14.56;55.58
9335;BME280;4706;41.844;26.082;2023-02-20T06:50:52;101144.53;;;14.75;54.59
9335;BME280;4706;41.844;26.082;2023-02-20T06:53:20;101140.03;;;14.88;53.98
9335;BME280;4706;41.844;26.082;2023-02-20T06:55:46;101160.78;;;15.22;52.75
9335;BME280;4706;41.844;26.082;2023-02-20T06:58:11;101159.41;;;15.42;51.47
9335;BME280;4706;41.844;26.082;2023-02-20T07:00:37;101143.53;;;15.65;50.07
9335;BME280;4706;41.844;26.082;2023-02-20T07:03:02;101158.28;;;15.74;49.49
9335;BME280;4706;41.844;26.082;2023-02-20T07:05:28;101161.75;;;15.88;48.87
9335;BME280;4706;41.844;26.082;2023-02-20T07:07:53;101158.69;;;15.98;48.54
9335;BME280;4706;41.844;26.082;2023-02-20T07:10:19;101169.63;;;16.12;48.09
9335;BME280;4706;41.844;26.082;2023-02-20T07:12:44;101164.59;;;16.14;47.39
9335;BME280;4706;41.844;26.082;2023-02-20T07:15:10;101150.53;;;16.11;46.91
9335;BME280;4706;41.844;26.082;2023-02-20T07:17:36;101150.53;;;16.19;46.35
9335;BME280;4706;41.844;26.082;2023-02-20T07:20:03;101145.16;;;16.23;46.88
9335;BME280;4706;41.844;26.082;2023-02-20T07:22:29;101130.00;;;16.29;46.40
9335;BME280;4706;41.844;26.082;2023-02-20T07:24:55;101123.13;;;16.35;46.19
9335;BME280;4706;41.844;26.082;2023-02-20T07:27:20;101125.72;;;16.49;46.71
9335;BME280;4706;41.844;26.082;2023-02-20T07:29:47;101125.06;;;16.87;44.61
9335;BME280;4706;41.844;26.082;2023-02-20T07:32:13;101137.78;;;17.05;44.90
9335;BME280;4706;41.844;26.082;2023-02-20T07:34:39;101139.47;;;17.36;44.03
9335;BME280;4706;41.844;26.082;2023-02-20T07:37:05;101134.38;;;17.46;42.45
9335;BME280;4706;41.844;26.082;2023-02-20T07:39:31;101143.47;;;17.64;43.07
9335;BME280;4706;41.844;26.082;2023-02-20T07:41:56;101141.13;;;17.75;42.12
9335;BME280;4706;41.844;26.082;2023-02-20T07:44:22;101144.19;;;17.82;41.68
9335;BME280;4706;41.844;26.082;2023-02-20T07:46:47;101141.00;;;17.63;41.56
9335;BME280;4706;41.844;26.082;2023-02-20T07:49:13;101144.69;;;17.84;41.61
9335;BME280;4706;41.844;26.082;2023-02-20T07:51:38;101148.50;;;18.01;41.61
9335;BME280;4706;41.844;26.082;2023-02-20T07:54:04;101141.28;;;18.29;41.44
9335;BME280;4706;41.844;26.082;2023-02-20T07:56:29;101141.75;;;18.52;39.19
9335;BME280;4706;41.844;26.082;2023-02-20T07:58:55;101144.94;;;18.63;39.57
9335;BME280;4706;41.844;26.082;2023-02-20T08:01:20;101141.31;;;18.83;39.38
9335;BME280;4706;41.844;26.082;2023-02-20T08:03:46;101147.41;;;18.98;38.89
9335;BME280;4706;41.844;26.082;2023-02-20T08:06:12;101133.88;;;19.08;36.62
9335;BME280;4706;41.844;26.082;2023-02-20T08:08:38;101126.06;;;19.14;36.93
9335;BME280;4706;41.844;26.082;2023-02-20T08:11:04;101128.19;;;19.17;36.71
9335;BME280;4706;41.844;26.082;2023-02-20T08:13:30;101138.97;;;19.06;36.65
9335;BME280;4706;41.844;26.082;2023-02-20T08:15:55;101121.91;;;19.08;36.31
9335;BME280;4706;41.844;26.082;2023-02-20T08:18:21;101143.25;;;19.04;36.39
9335;BME280;4706;41.844;26.082;2023-02-20T08:20:46;101146.75;;;19.13;37.07
9335;BME280;4706;41.844;26.082;2023-02-20T08:23:18;101153.09;;;19.34;37.56
9335;BME280;4706;41.844;26.082;2023-02-20T08:25:45;101158.03;;;19.62;35.64
9335;BME280;4706;41.844;26.082;2023-02-20T08:28:12;101159.19;;;19.85;36.00
9335;BME280;4706;41.844;26.082;2023-02-20T08:30:38;101150.44;;;20.11;35.44
9335;BME280;4706;41.844;26.082;2023-02-20T08:33:03;101147.75;;;20.15;33.67
9335;BME280;4706;41.844;26.082;2023-02-20T08:35:33;101152.78;;;20.09;33.86
9335;BME280;4706;41.844;26.082;2023-02-20T08:38:00;101150.72;;;19.94;33.34
9335;BME280;4706;41.844;26.082;2023-02-20T08:40:26;101145.13;;;19.94;33.66
9335;BME280;4706;41.844;26.082;2023-02-20T08:42:51;101147.09;;;20.06;32.38
9335;BME280;4706;41.844;26.082;2023-02-20T08:45:17;101140.81;;;20.09;32.26
9335;BME280;4706;41.844;26.082;2023-02-20T08:47:43;101132.72;;;20.32;30.94
9335;BME280;4706;41.844;26.082;2023-02-20T08:50:08;101139.34;;;20.40;29.44
9335;BME280;4706;41.844;26.082;2023-02-20T08:52:34;101142.13;;;20.40;28.95
9335;BME280;4706;41.844;26.082;2023-02-20T08:54:59;101129.06;;;20.44;29.68
9335;BME280;4706;41.844;26.082;2023-02-20T08:57:25;101132.31;;;20.58;29.56
9335;BME280;4706;41.844;26.082;2023-02-20T08:59:50;101127.28;;;20.64;29.77
9335;BME280;4706;41.844;26.082;2023-02-20T09:02:22;101128.69;;;20.85;29.88
9335;BME280;4706;41.844;26.082;2023-02-20T09:04:54;101140.44;;;20.91;29.21
9335;BME280;4706;41.844;26.082;2023-02-20T09:07:19;101138.81;;;21.06;28.04
9335;BME280;4706;41.844;26.082;2023-02-20T09:09:45;101138.22;;;21.28;27.05
9335;BME280;4706;41.844;26.082;2023-02-20T09:12:11;101135.00;;;21.58;26.95
9335;BME280;4706;41.844;26.082;2023-02-20T09:14:36;101141.97;;;21.64;27.81
9335;BME280;4706;41.844;26.082;2023-02-20T09:17:02;101147.63;;;21.83;28.18
9335;BME280;4706;41.844;26.082;2023-02-20T09:19:27;101139.19;;;21.99;26.74
9335;BME280;4706;41.844;26.082;2023-02-20T09:21:53;101151.75;;;22.05;27.01
9335;BME280;4706;41.844;26.082;2023-02-20T09:24:18;101153.31;;;21.87;25.40
9335;BME280;4706;41.844;26.082;2023-02-20T09:26:44;101151.88;;;21.93;25.56
9335;BME280;4706;41.844;26.082;2023-02-20T09:29:09;101156.16;;;21.71;24.81
9335;BME280;4706;41.844;26.082;2023-02-20T09:31:35;101150.38;;;21.64;25.89
9335;BME280;4706;41.844;26.082;2023-02-20T09:34:00;101157.41;;;21.90;25.67
9335;BME280;4706;41.844;26.082;2023-02-20T09:36:28;101155.28;;;22.02;25.18
9335;BME280;4706;41.844;26.082;2023-02-20T09:38:54;101169.84;;;21.92;24.96
9335;BME280;4706;41.844;26.082;2023-02-20T09:44:12;101177.25;;;21.85;25.00
9335;BME280;4706;41.844;26.082;2023-02-20T09:46:44;101176.63;;;21.91;24.93
9335;BME280;4706;41.844;26.082;2023-02-20T09:49:11;101178.97;;;22.05;23.92
9335;BME280;4706;41.844;26.082;2023-02-20T09:51:42;101184.09;;;22.19;24.14
9335;BME280;4706;41.844;26.082;2023-02-20T09:54:26;101187.56;;;22.47;23.87
9335;BME280;4706;41.844;26.082;2023-02-20T09:56:56;101196.41;;;22.49;22.82
9335;BME280;4706;41.844;26.082;2023-02-20T10:00:00;101193.25;;;22.51;23.31
9335;BME280;4706;41.844;26.082;2023-02-20T10:02:19;101196.13;;;22.54;24.07
9335;BME280;4706;41.844;26.082;2023-02-20T10:04:49;101190.75;;;22.65;23.26
9335;BME280;4706;41.844;26.082;2023-02-20T10:07:22;101171.03;;;22.62;24.18
9335;BME280;4706;41.844;26.082;2023-02-20T10:09:49;101195.56;;;23.03;24.16
9335;BME280;4706;41.844;26.082;2023-02-20T10:20:31;101186.75;;;23.24;22.65
9335;BME280;4706;41.844;26.082;2023-02-20T10:23:07;101189.44;;;23.17;21.49
9335;BME280;4706;41.844;26.082;2023-02-20T10:25:41;101183.13;;;22.66;20.55
9335;BME280;4706;41.844;26.082;2023-02-20T10:28:10;101174.97;;;22.57;21.09
9335;BME280;4706;41.844;26.082;2023-02-20T10:33:30;101181.06;;;22.43;21.54
9335;BME280;4706;41.844;26.082;2023-02-20T10:36:24;101185.06;;;22.26;21.88
9335;BME280;4706;41.844;26.082;2023-02-20T10:39:11;101176.56;;;22.39;21.84
9335;BME280;4706;41.844;26.082;2023-02-20T10:46:59;101182.25;;;22.81;21.71
9335;BME280;4706;41.844;26.082;2023-02-20T10:49:48;101180.41;;;22.89;22.42
9335;BME280;4706;41.844;26.082;2023-02-20T10:52:32;101175.47;;;23.21;21.68
9335;BME280;4706;41.844;26.082;2023-02-20T11:00:51;101173.16;;;23.72;20.89
9335;BME280;4706;41.844;26.082;2023-02-20T11:03:23;101164.06;;;23.79;20.62
9335;BME280;4706;41.844;26.082;2023-02-20T11:05:53;101177.81;;;23.88;20.76
9335;BME280;4706;41.844;26.082;2023-02-20T11:08:20;101192.25;;;23.63;20.59
9335;BME280;4706;41.844;26.082;2023-02-20T11:10:53;101178.84;;;23.76;20.52
9335;BME280;4706;41.844;26.082;2023-02-20T11:13:22;101175.28;;;23.79;21.06
9335;BME280;4706;41.844;26.082;2023-02-20T11:15:51;101179.91;;;23.68;21.03
9335;BME280;4706;41.844;26.082;2023-02-20T11:18:43;101162.44;;;23.78;20.30
9335;BME280;4706;41.844;26.082;2023-02-20T11:21:09;101157.13;;;23.73;19.90
9335;BME280;4706;41.844;26.082;2023-02-20T11:23:42;101149.59;;;23.77;20.93
9335;BME280;4706;41.844;26.082;2023-02-20T11:28:38;101159.75;;;24.12;21.17
9335;BME280;4706;41.844;26.082;2023-02-20T11:31:06;101162.53;;;24.38;20.32
9335;BME280;4706;41.844;26.082;2023-02-20T11:33:35;101170.41;;;24.56;20.23
9335;BME280;4706;41.844;26.082;2023-02-20T11:36:23;101166.56;;;24.67;19.83
9335;BME280;4706;41.844;26.082;2023-02-20T11:38:59;101171.84;;;24.73;19.87
9335;BME280;4706;41.844;26.082;2023-02-20T11:41:26;101169.53;;;24.82;19.66
9335;BME280;4706;41.844;26.082;2023-02-20T11:44:05;101168.41;;;24.86;19.79
9335;BME280;4706;41.844;26.082;2023-02-20T11:46:31;101163.75;;;25.01;20.11
9335;BME280;4706;41.844;26.082;2023-02-20T11:49:11;101178.22;;;25.03;19.55
9335;BME280;4706;41.844;26.082;2023-02-20T11:51:47;101175.81;;;25.02;19.13
9335;BME280;4706;41.844;26.082;2023-02-20T11:54:21;101169.09;;;25.10;19.30
9335;BME280;4706;41.844;26.082;2023-02-20T11:57:05;101165.53;;;25.16;19.87
9335;BME280;4706;41.844;26.082;2023-02-20T11:59:44;101171.06;;;25.09;18.94
9335;BME280;4706;41.844;26.082;2023-02-20T12:04:43;101182.97;;;24.95;19.96
9335;BME280;4706;41.844;26.082;2023-02-20T12:07:26;101179.66;;;24.86;19.02
9335;BME280;4706;41.844;26.082;2023-02-20T12:09:56;101179.72;;;24.60;18.89
9335;BME280;4706;41.844;26.082;2023-02-20T12:12:25;101183.00;;;24.65;19.90
9335;BME280;4706;41.844;26.082;2023-02-20T12:14:53;101178.31;;;24.77;19.62
9335;BME280;4706;41.844;26.082;2023-02-20T12:17:28;101176.53;;;24.95;20.37
9335;BME280;4706;41.844;26.082;2023-02-20T12:20:09;101169.88;;;25.10;19.38
9335;BME280;4706;41.844;26.082;2023-02-20T12:22:45;101162.75;;;25.20;19.74
9335;BME280;4706;41.844;26.082;2023-02-20T12:30:46;101167.16;;;25.17;19.15
9335;BME280;4706;41.844;26.082;2023-02-20T12:39:02;101167.47;;;24.18;19.78
9335;BME280;4706;41.844;26.082;2023-02-20T12:41:40;101169.25;;;24.04;19.38
9335;BME280;4706;41.844;26.082;2023-02-20T13:00:50;101194.06;;;23.52;19.83
9335;BME280;4706;41.844;26.082;2023-02-20T13:03:34;101196.47;;;23.54;19.71
9335;BME280;4706;41.844;26.082;2023-02-20T13:06:03;101192.53;;;23.58;19.38
9335;BME280;4706;41.844;26.082;2023-02-20T13:08:34;101169.78;;;23.40;19.25
9335;BME280;4706;41.844;26.082;2023-02-20T13:11:04;101184.31;;;23.23;20.14
9335;BME280;4706;41.844;26.082;2023-02-20T13:13:37;101185.31;;;23.34;20.55
9335;BME280;4706;41.844;26.082;2023-02-20T13:16:39;101186.19;;;23.38;19.88
9335;BME280;4706;41.844;26.082;2023-02-20T13:19:18;101190.31;;;23.44;19.61
9335;BME280;4706;41.844;26.082;2023-02-20T13:21:45;101195.31;;;23.55;20.02
9335;BME280;4706;41.844;26.082;2023-02-20T13:24:31;101201.28;;;23.53;19.63
9335;BME280;4706;41.844;26.082;2023-02-20T13:27:06;101193.69;;;23.54;19.81
9335;BME280;4706;41.844;26.082;2023-02-20T13:29:56;101202.63;;;23.17;18.84
9335;BME280;4706;41.844;26.082;2023-02-20T13:32:26;101198.97;;;22.93;18.72
9335;BME280;4706;41.844;26.082;2023-02-20T13:34:53;101195.31;;;22.73;19.63
9335;BME280;4706;41.844;26.082;2023-02-20T13:59:07;101208.25;;;22.23;19.95
9335;BME280;4706;41.844;26.082;2023-02-20T14:04:22;101206.16;;;22.04;19.38
9335;BME280;4706;41.844;26.082;2023-02-20T14:06:50;101207.63;;;21.82;19.66
9335;BME280;4706;41.844;26.082;2023-02-20T14:09:20;101196.88;;;21.69;20.38
9335;BME280;4706;41.844;26.082;2023-02-20T14:11:47;101203.94;;;21.63;20.42
9335;BME280;4706;41.844;26.082;2023-02-20T14:14:34;101201.91;;;21.47;19.96
9335;BME280;4706;41.844;26.082;2023-02-20T14:17:17;101206.88;;;21.38;20.24
9335;BME280;4706;41.844;26.082;2023-02-20T14:19:49;101212.31;;;21.19;20.41
9335;BME280;4706;41.844;26.082;2023-02-20T14:24:43;101214.41;;;20.94;20.03
9335;BME280;4706;41.844;26.082;2023-02-20T14:27:30;101227.63;;;20.81;20.80
9335;BME280;4706;41.844;26.082;2023-02-20T14:32:42;101236.41;;;20.67;21.13
9335;BME280;4706;41.844;26.082;2023-02-20T14:35:15;101244.56;;;20.60;21.42
9335;BME280;4706;41.844;26.082;2023-02-20T14:38:00;101255.63;;;20.56;21.39
9335;BME280;4706;41.844;26.082;2023-02-20T14:40:40;101244.00;;;20.54;20.75
9335;BME280;4706;41.844;26.082;2023-02-20T14:43:18;101241.66;;;20.44;21.10
9335;BME280;4706;41.844;26.082;2023-02-20T14:45:46;101248.63;;;20.38;20.87
9335;BME280;4706;41.844;26.082;2023-02-20T14:48:41;101251.78;;;20.12;21.72
9335;BME280;4706;41.844;26.082;2023-02-20T14:51:21;101254.59;;;20.12;21.88
9335;BME280;4706;41.844;26.082;2023-02-20T14:54:14;101262.03;;;20.08;21.99
9335;BME280;4706;41.844;26.082;2023-02-20T14:56:40;101253.53;;;19.92;21.72
9335;BME280;4706;41.844;26.082;2023-02-20T15:01:58;101261.66;;;19.85;22.43
9335;BME280;4706;41.844;26.082;2023-02-20T15:04:25;101265.75;;;19.87;21.78
9335;BME280;4706;41.844;26.082;2023-02-20T15:07:02;101262.22;;;19.66;21.80
9335;BME280;4706;41.844;26.082;2023-02-20T15:09:39;101276.34;;;19.49;21.67
9335;BME280;4706;41.844;26.082;2023-02-20T15:12:07;101281.50;;;19.26;22.07
9335;BME280;4706;41.844;26.082;2023-02-20T15:14:43;101286.88;;;19.10;22.21